Time;durP1;ratioP1;P1;durP2;ratioP2;P2;SDS_P1;SDS_P2;PMS_P1;PMS_P2;Temp;Humidity;BMP_temperature;BMP_pressure;BME280_temperature;BME280_humidity;BME280_pressure;Samples;Min_cycle;Max_cycle;Signal;HPM_P1;HPM_P2
2023/06/21 00:06:22;;;;;;;2.70;2.40;;;;;;;21.30;100.00;100819.53;20955922;28;20399;-65
2023/06/21 00:16:24;;;;;;;3.17;2.88;;;;;;;21.28;100.00;100813.44;20966039;28;20051;-65
2023/06/21 00:26:26;;;;;;;3.45;2.80;;;;;;;21.28;100.00;100812.56;20923483;28;20143;-65
2023/06/21 00:36:27;;;;;;;3.45;2.75;;;;;;;21.27;100.00;100814.44;20922390;28;20413;-65
2023/06/21 00:46:34;;;;;;;3.67;3.03;;;;;;;21.26;100.00;100826.28;20941005;28;20044;-65
2023/06/21 00:56:35;;;;;;;2.70;2.50;;;;;;;21.25;99.90;100829.16;20963262;28;20044;-65
2023/06/21 01:07:01;;;;;;;3.50;3.20;;;;;;;21.24;100.00;100843.69;20948894;28;20048;-65
2023/06/21 01:17:04;;;;;;;3.15;2.90;;;;;;;21.22;100.00;100854.69;20927989;28;20056;-65
2023/06/21 01:27:15;;;;;;;3.60;3.17;;;;;;;21.20;100.00;100867.50;20971123;28;20051;-65
2023/06/21 01:37:17;;;;;;;3.80;3.40;;;;;;;21.21;99.81;100858.41;20955202;28;20051;-65
2023/06/21 01:47:19;;;;;;;4.00;3.60;;;;;;;21.19;99.83;100871.22;20931827;28;20098;-65
2023/06/21 01:57:21;;;;;;;4.28;3.70;;;;;;;21.16;99.88;100885.09;20966653;28;20048;-65
2023/06/21 02:07:23;;;;;;;4.03;3.63;;;;;;;21.15;99.87;100888.81;20920762;28;20510;-65
2023/06/21 02:17:25;;;;;;;4.07;3.67;;;;;;;21.13;99.97;100897.09;20969334;28;20055;-65
2023/06/21 02:27:27;;;;;;;4.50;4.10;;;;;;;21.12;100.00;100902.66;20971176;28;20572;-65
2023/06/21 02:37:28;;;;;;;4.82;4.32;;;;;;;21.11;100.00;100900.97;20965826;28;20048;-65
2023/06/21 02:47:30;;;;;;;5.97;5.38;;;;;;;21.10;99.80;100907.38;20963783;28;20044;-65
2023/06/21 02:57:33;;;;;;;6.43;5.82;;;;;;;21.09;100.00;100919.22;20951690;28;20511;-65
2023/06/21 03:07:35;;;;;;;6.50;5.82;;;;;;;21.08;99.89;100925.63;20945334;28;20040;-65
2023/06/21 03:17:37;;;;;;;6.57;5.97;;;;;;;21.05;99.67;100947.59;20960723;28;20062;-65
2023/06/21 03:27:39;;;;;;;7.97;7.18;;;;;;;21.05;99.45;100942.19;20963249;28;20052;-65
2023/06/21 03:37:42;;;;;;;7.93;7.13;;;;;;;21.04;99.39;100962.16;20983145;28;20060;-65
2023/06/21 03:47:44;;;;;;;7.85;7.05;;;;;;;21.03;99.24;100971.28;20949163;28;20148;-65
2023/06/21 03:57:46;;;;;;;8.15;7.45;;;;;;;21.00;99.46;100978.69;20990964;28;20127;-65
2023/06/21 04:07:49;;;;;;;8.20;7.40;;;;;;;20.99;99.18;100982.41;20942944;28;20041;-65
2023/06/21 04:17:51;;;;;;;8.05;7.35;;;;;;;20.99;98.70;101001.34;20932381;28;20040;-65
2023/06/21 04:27:54;;;;;;;7.72;7.03;;;;;;;20.99;98.83;101005.91;20956359;28;20518;-65
2023/06/21 04:37:55;;;;;;;10.93;9.90;;;;;;;20.97;100.00;101016.91;20961600;28;20580;-65
2023/06/21 04:47:57;;;;;;;23.02;20.73;;;;;;;20.88;100.00;101023.25;20971468;28;20526;-66
2023/06/21 04:58:02;;;;;;;23.23;20.92;;;;;;;20.82;100.00;101008.47;20996279;28;20057;-66
2023/06/21 05:08:04;;;;;;;22.73;20.42;;;;;;;20.81;100.00;101028.41;21002034;28;20068;-66
2023/06/21 05:18:06;;;;;;;21.05;18.85;;;;;;;20.84;100.00;101048.91;20977041;28;20045;-65
2023/06/21 05:28:07;;;;;;;19.45;17.45;;;;;;;20.90;100.00;101069.94;20944014;28;20045;-66
2023/06/21 05:38:09;;;;;;;20.40;18.45;;;;;;;20.96;100.00;101069.31;20966214;28;20056;-66
2023/06/21 05:48:13;;;;;;;18.63;16.83;;;;;;;21.01;100.00;101085.13;20952374;28;20045;-66
2023/06/21 05:58:14;;;;;;;19.35;17.48;;;;;;;21.05;100.00;101100.03;20966577;28;20429;-66
2023/06/21 06:08:16;;;;;;;16.20;14.57;;;;;;;21.10;100.00;101113.09;20920829;28;20056;-66
2023/06/21 06:18:17;;;;;;;15.57;13.98;;;;;;;21.13;100.00;101123.63;20935181;28;20128;-66
2023/06/21 06:28:19;;;;;;;14.43;13.02;;;;;;;21.16;100.00;101131.44;20939407;28;20450;-66
2023/06/21 06:38:21;;;;;;;10.77;9.77;;;;;;;21.19;100.00;101133.84;20927998;28;20072;-66
2023/06/21 06:48:22;;;;;;;10.35;9.45;;;;;;;21.21;100.00;101156.22;20941564;28;20049;-66
2023/06/21 06:58:24;;;;;;;11.38;10.32;;;;;;;21.26;100.00;101161.16;21008469;28;20056;-66
2023/06/21 07:08:26;;;;;;;10.45;9.45;;;;;;;21.27;100.00;101168.28;21002955;28;20041;-66
2023/06/21 07:18:27;;;;;;;9.55;8.65;;;;;;;21.29;100.00;101177.09;20978658;28;20056;-66
2023/06/21 07:28:29;;;;;;;7.97;7.25;;;;;;;21.28;100.00;101205.19;20952100;28;20052;-66
2023/06/21 07:38:30;;;;;;;7.28;6.63;;;;;;;21.36;100.00;101205.28;20955787;28;20472;-66
2023/06/21 07:48:34;;;;;;;6.40;5.80;;;;;;;21.39;100.00;101209.56;20939025;28;20052;-65
2023/06/21 07:58:35;;;;;;;5.47;4.97;;;;;;;21.42;100.00;101215.50;20919792;28;20086;-65
2023/06/21 08:08:37;;;;;;;5.65;5.15;;;;;;;21.47;100.00;101225.88;20922872;28;20119;-65
2023/06/21 08:18:38;;;;;;;5.10;4.70;;;;;;;21.55;100.00;101231.38;20939221;28;20052;-65
2023/06/21 08:28:41;;;;;;;4.90;4.40;;;;;;;21.59;100.00;101227.38;20951598;28;20041;-65
2023/06/21 08:38:43;;;;;;;5.47;4.53;;;;;;;21.62;100.00;101247.03;20926246;28;20578;-66
2023/06/21 08:48:46;;;;;;;9.18;4.88;;;;;;;21.62;98.58;101268.69;20896805;28;20068;-65
2023/06/21 08:59:03;;;;;;;6.20;3.90;;;;;;;21.62;98.33;101282.25;20889537;28;20514;-65
2023/06/21 09:09:04;;;;;;;6.40;4.18;;;;;;;21.64;97.88;101285.69;20915601;28;20044;-65
2023/06/21 09:19:07;;;;;;;7.22;3.55;;;;;;;21.58;97.58;101287.97;20945741;28;20508;-65
2023/06/21 09:29:08;;;;;;;8.80;3.47;;;;;;;21.67;97.60;101296.25;20927171;28;20045;-65
2023/06/21 09:39:11;;;;;;;4.60;2.92;;;;;;;21.72;98.04;101302.06;20947047;28;20049;-66
2023/06/21 09:49:13;;;;;;;4.25;2.53;;;;;;;21.68;98.22;101301.50;20961171;28;20059;-65
2023/06/21 09:59:16;;;;;;;3.70;2.63;;;;;;;21.74;97.72;101310.91;20963300;28;20049;-65
2023/06/21 10:09:19;;;;;;;;;;;;;;;21.76;97.69;101314.31;20965911;28;20041;-66
2023/06/21 10:19:22;;;;;;;3.90;2.75;;;;;;;21.77;96.91;101310.59;20946301;28;19975;-65
2023/06/21 10:29:24;;;;;;;3.40;2.47;;;;;;;21.78;96.35;101317.72;20943711;28;20041;-66
2023/06/21 10:39:26;;;;;;;2.45;2.00;;;;;;;21.78;96.18;101306.88;20921468;28;20055;-66
2023/06/21 10:49:28;;;;;;;3.55;2.15;;;;;;;21.80;95.65;101314.84;20925305;28;20048;-66
2023/06/21 10:59:31;;;;;;;2.38;1.83;;;;;;;21.84;95.42;101321.66;20954969;28;20049;-66
2023/06/21 11:09:34;;;;;;;2.55;2.03;;;;;;;21.85;94.96;101335.06;20919221;28;20052;-65
2023/06/21 11:19:37;;;;;;;2.55;1.98;;;;;;;21.85;93.63;101348.63;20939268;28;20041;-65
2023/06/21 11:29:40;;;;;;;2.10;1.73;;;;;;;21.88;93.00;101351.03;20963722;28;20083;-65
2023/06/21 11:39:44;;;;;;;2.00;1.53;;;;;;;21.94;92.38;101356.84;20959961;28;20075;-65
2023/06/21 11:49:59;;;;;;;1.52;1.42;;;;;;;21.96;91.77;101358.41;21022702;28;20455;-65
2023/06/21 12:00:01;;;;;;;2.38;1.52;;;;;;;22.01;90.35;101376.91;20935504;28;21183;-66
2023/06/21 12:10:03;;;;;;;1.48;1.38;;;;;;;22.02;90.37;101374.06;20930176;28;20080;-66
2023/06/21 12:20:05;;;;;;;1.73;1.40;;;;;;;21.99;90.74;101379.78;20942313;28;20578;-66
2023/06/21 12:30:07;;;;;;;1.65;1.30;;;;;;;21.95;90.41;101377.50;20945212;28;20056;-66
2023/06/21 12:40:09;;;;;;;3.08;1.70;;;;;;;21.94;90.97;101381.22;20923868;28;20052;-66
2023/06/21 12:50:11;;;;;;;2.20;1.70;;;;;;;21.92;91.02;101392.25;20959562;28;20041;-66
2023/06/21 13:00:13;;;;;;;1.55;1.45;;;;;;;21.91;91.06;101403.22;20939485;28;20044;-66
2023/06/21 13:10:14;;;;;;;1.65;1.42;;;;;;;21.91;90.66;101414.06;20912456;28;20055;-66
2023/06/21 13:20:16;;;;;;;1.60;1.50;;;;;;;21.88;89.97;101426.06;20954376;28;20048;-65
2023/06/21 13:30:19;;;;;;;1.55;1.40;;;;;;;21.88;89.92;101434.22;20915466;28;20045;-65
2023/06/21 13:40:21;;;;;;;1.70;1.40;;;;;;;21.88;90.21;101447.75;20954935;28;20048;-66
2023/06/21 13:50:22;;;;;;;3.03;1.80;;;;;;;21.92;89.78;101437.47;20967449;28;20075;-66
2023/06/21 14:00:24;;;;;;;1.83;1.50;;;;;;;21.93;89.52;101439.16;20990214;28;20052;-66
2023/06/21 14:10:26;;;;;;;2.25;1.60;;;;;;;21.89;88.54;101435.91;20946099;28;20264;-66
2023/06/21 14:20:29;;;;;;;2.45;1.58;;;;;;;21.87;89.03;101436.06;20977668;28;21599;-66
2023/06/21 14:30:31;;;;;;;2.20;1.40;;;;;;;21.85;87.43;101448.91;20922924;28;20059;-66
2023/06/21 14:40:33;;;;;;;2.72;1.80;;;;;;;21.86;87.04;101449.75;20978385;28;20521;-65
2023/06/21 14:50:34;;;;;;;1.63;1.38;;;;;;;21.87;87.07;101451.44;20934566;28;20044;-65
2023/06/21 15:00:36;;;;;;;2.42;1.70;;;;;;;21.87;87.89;101446.91;20928725;28;20888;-65
2023/06/21 15:10:38;;;;;;;2.55;1.63;;;;;;;21.87;87.57;101451.44;20925343;28;20094;-64
2023/06/21 15:20:39;;;;;;;2.97;1.35;;;;;;;21.88;88.41;101448.59;20890653;28;20685;-64
2023/06/21 15:30:41;;;;;;;2.50;1.42;;;;;;;21.93;88.32;101458.13;20930616;28;20059;-65
2023/06/21 15:40:43;;;;;;;3.20;1.75;;;;;;;21.94;88.34;101457.13;20955527;28;20709;-64
2023/06/21 15:50:45;;;;;;;1.45;1.35;;;;;;;21.95;88.43;101453.41;20941424;28;20131;-65
2023/06/21 16:00:47;;;;;;;2.10;1.40;;;;;;;21.99;88.51;101454.81;20939960;28;20044;-64
2023/06/21 16:10:49;;;;;;;1.90;1.30;;;;;;;22.04;89.13;101462.50;20929687;28;20122;-66
2023/06/21 16:20:58;;;;;;;1.75;1.35;;;;;;;22.07;88.93;101465.75;20932202;28;20056;-66
2023/06/21 16:31:00;;;;;;;2.05;1.20;;;;;;;22.07;88.62;101471.19;20926699;28;20044;-66
2023/06/21 16:41:01;;;;;;;1.70;1.50;;;;;;;22.07;87.91;101475.78;20943280;28;20049;-65
2023/06/21 16:51:03;;;;;;;1.75;1.33;;;;;;;22.03;87.31;101480.63;20980949;28;20049;-66
2023/06/21 17:01:07;;;;;;;2.42;1.60;;;;;;;21.99;86.70;101482.81;20918613;28;20072;-70
2023/06/21 17:11:09;;;;;;;2.23;1.50;;;;;;;21.97;87.56;101495.66;20935160;28;20119;-70
2023/06/21 17:21:10;;;;;;;3.13;1.60;;;;;;;21.99;88.37;101500.91;20932297;28;20840;-70
2023/06/21 17:31:12;;;;;;;3.47;2.30;;;;;;;21.97;87.84;101509.22;20952285;28;20048;-70
2023/06/21 17:41:14;;;;;;;2.30;1.73;;;;;;;21.91;87.28;101528.78;20910504;28;20044;-70
2023/06/21 17:51:17;;;;;;;2.63;1.83;;;;;;;21.87;87.21;101528.22;20951750;28;20101;-69
2023/06/21 18:01:18;;;;;;;3.25;1.63;;;;;;;21.87;87.77;101538.19;20954108;28;20041;-69
2023/06/21 18:11:21;;;;;;;3.85;2.33;;;;;;;21.85;87.80;101551.03;20945723;28;20054;-70
2023/06/21 18:21:22;;;;;;;2.60;1.67;;;;;;;21.84;88.32;101571.00;20965085;28;20154;-69
2023/06/21 18:31:24;;;;;;;4.20;1.80;;;;;;;21.81;88.55;101577.59;20957990;28;20473;-69
2023/06/21 18:41:26;;;;;;;3.10;1.80;;;;;;;21.80;88.78;101575.88;20934049;28;20131;-70
2023/06/21 18:51:27;;;;;;;2.85;1.85;;;;;;;21.77;88.91;101554.50;20972152;28;20052;-70
2023/06/21 19:01:29;;;;;;;2.35;1.77;;;;;;;21.75;89.00;101559.22;20989097;28;20145;-70
2023/06/21 19:11:33;;;;;;;2.45;1.70;;;;;;;21.73;88.68;101544.94;20984134;28;20276;-69
2023/06/21 19:21:35;;;;;;;1.50;1.40;;;;;;;21.70;88.64;101559.63;20986191;28;20110;-70
2023/06/21 19:31:37;;;;;;;2.53;1.70;;;;;;;21.69;88.39;101567.91;20941414;28;20110;-70
2023/06/21 19:41:38;;;;;;;1.63;1.52;;;;;;;21.66;88.06;101565.50;20975196;28;20041;-70
2023/06/21 19:51:40;;;;;;;2.53;1.70;;;;;;;21.65;87.75;101582.72;20916117;28;20065;-70
2023/06/21 20:01:42;;;;;;;2.30;1.52;;;;;;;21.62;87.51;101585.69;20922062;28;20060;-70
2023/06/21 20:11:44;;;;;;;1.88;1.65;;;;;;;21.61;87.16;101602.97;20962485;28;20056;-70
2023/06/21 20:21:45;;;;;;;1.88;1.40;;;;;;;21.57;87.26;101608.66;20958928;28;20140;-70
2023/06/21 20:31:47;;;;;;;1.75;1.63;;;;;;;21.54;87.01;101598.13;20956755;28;20075;-70
2023/06/21 20:41:49;;;;;;;1.70;1.60;;;;;;;21.52;86.84;101605.53;20965652;28;20051;-70
2023/06/21 20:51:50;;;;;;;1.63;1.17;;;;;;;21.50;86.86;101618.38;20967689;28;20048;-70
2023/06/21 21:01:52;;;;;;;2.08;1.45;;;;;;;21.48;86.86;101631.19;20937542;28;20048;-70
2023/06/21 21:11:54;;;;;;;1.70;1.60;;;;;;;21.46;86.61;101657.59;20958502;28;20049;-70
2023/06/21 21:21:56;;;;;;;1.88;1.60;;;;;;;21.43;86.42;101657.88;20951792;28;20063;-70
2023/06/21 21:31:57;;;;;;;1.83;1.73;;;;;;;21.41;86.44;101654.44;20958781;28;20056;-70
2023/06/21 21:41:59;;;;;;;2.30;1.75;;;;;;;21.39;86.45;101665.41;20975613;28;20128;-70
2023/06/21 21:52:01;;;;;;;2.10;1.90;;;;;;;21.38;86.15;101662.84;20959221;28;20181;-70
2023/06/21 22:02:02;;;;;;;2.25;2.05;;;;;;;21.36;86.39;101667.56;20953424;28;20057;-70
2023/06/21 22:12:05;;;;;;;2.60;2.10;;;;;;;21.33;86.40;101673.25;20940524;28;20096;-70
2023/06/21 22:22:07;;;;;;;3.03;1.90;;;;;;;21.32;86.55;101668.84;20958018;28;21139;-70
2023/06/21 22:32:09;;;;;;;2.40;2.20;;;;;;;21.29;86.37;101656.41;20925949;28;20040;-70
2023/06/21 22:42:11;;;;;;;2.83;2.40;;;;;;;21.27;86.54;101670.13;20941805;28;20048;-70
2023/06/21 22:52:16;;;;;;;2.90;2.60;;;;;;;21.27;86.63;101678.25;20955832;28;20048;-70
2023/06/21 23:02:19;;;;;;;3.33;3.00;;;;;;;21.25;86.82;101680.25;20968730;28;20056;-70
2023/06/21 23:12:20;;;;;;;3.35;3.00;;;;;;;21.24;86.91;101683.94;20979778;28;20095;-70
2023/06/21 23:22:22;;;;;;;4.15;3.50;;;;;;;21.22;87.22;101680.53;20968276;28;20041;-70
2023/06/21 23:32:26;;;;;;;4.20;3.45;;;;;;;21.21;87.39;101678.81;20938632;28;20528;-70
2023/06/21 23:42:28;;;;;;;3.85;3.35;;;;;;;21.21;87.46;101689.63;20937820;28;20047;-70
2023/06/21 23:52:30;;;;;;;4.53;3.80;;;;;;;21.20;87.44;101697.88;20947604;28;20048;-70
